<?xml version="1.0" encoding="UTF-8" standalone="no" ?>
<gpx xmlns="http://www.topografix.com/GPX/1/1" xmlns:xsi="http://www.w3.org/2001/XMLSchema-instance" xsi:schemaLocation="http://www.topografix.com/GPX/1/1 http://www.topografix.com/GPX/1/1/gpx.xsd" version="1.1" creator="VisuGPX - https://www.visugpx.com">
  <metadata>
    <name>Ballade-VTT-La Bresse-03102010</name>
    <desc><![CDATA[Un tour bien sympa de seulement...19.65 km !]]></desc>
  </metadata>
  <trk>
    <name><![CDATA[VTTLaBresse-03102010]]></name>
    <cmt><![CDATA[2010-10-03 09:07:22 +0200]]></cmt>
    <trkseg>
      <trkpt lat="47.99987" lon="6.8812">
        <ele>819</ele>
        <time>2010-10-03T07:09:17Z</time>
      </trkpt>
      <trkpt lat="47.99983" lon="6.88136">
        <ele>815</ele>
        <time>2010-10-03T07:11:20Z</time>
      </trkpt>
      <trkpt lat="47.99993" lon="6.88148">
        <ele>812</ele>
        <time>2010-10-03T07:12:07Z</time>
      </trkpt>
      <trkpt lat="47.99999" lon="6.88158">
        <ele>813</ele>
        <time>2010-10-03T07:12:13Z</time>
      </trkpt>
      <trkpt lat="48.0001" lon="6.88176">
        <ele>813</ele>
        <time>2010-10-03T07:12:25Z</time>
      </trkpt>
      <trkpt lat="48.00064" lon="6.88239">
        <ele>828</ele>
        <time>2010-10-03T07:13:06Z</time>
      </trkpt>
      <trkpt lat="48.00071" lon="6.88245">
        <ele>830</ele>
        <time>2010-10-03T07:13:10Z</time>
      </trkpt>
      <trkpt lat="48.00085" lon="6.88255">
        <ele>831</ele>
        <time>2010-10-03T07:13:17Z</time>
      </trkpt>
      <trkpt lat="48.00095" lon="6.88262">
        <ele>833</ele>
        <time>2010-10-03T07:13:22Z</time>
      </trkpt>
      <trkpt lat="48.00108" lon="6.88291">
        <ele>835</ele>
        <time>2010-10-03T07:13:34Z</time>
      </trkpt>
      <trkpt lat="48.00111" lon="6.88327">
        <ele>838</ele>
        <time>2010-10-03T07:13:46Z</time>
      </trkpt>
      <trkpt lat="48.0011" lon="6.88349">
        <ele>838</ele>
        <time>2010-10-03T07:13:53Z</time>
      </trkpt>
      <trkpt lat="48.00108" lon="6.88385">
        <ele>841</ele>
        <time>2010-10-03T07:14:06Z</time>
      </trkpt>
      <trkpt lat="48.00107" lon="6.88399">
        <ele>841</ele>
        <time>2010-10-03T07:14:11Z</time>
      </trkpt>
      <trkpt lat="48.00103" lon="6.88438">
        <ele>845</ele>
        <time>2010-10-03T07:14:24Z</time>
      </trkpt>
      <trkpt lat="48.00099" lon="6.88456">
        <ele>844</ele>
        <time>2010-10-03T07:14:30Z</time>
      </trkpt>
      <trkpt lat="48.0006" lon="6.88551">
        <ele>851</ele>
        <time>2010-10-03T07:15:02Z</time>
      </trkpt>
      <trkpt lat="48.00049" lon="6.88569">
        <ele>855</ele>
        <time>2010-10-03T07:15:11Z</time>
      </trkpt>
      <trkpt lat="48.00036" lon="6.88588">
        <ele>856</ele>
        <time>2010-10-03T07:15:19Z</time>
      </trkpt>
      <trkpt lat="48.00027" lon="6.88598">
        <ele>858</ele>
        <time>2010-10-03T07:15:25Z</time>
      </trkpt>
      <trkpt lat="48.00017" lon="6.88581">
        <ele>859</ele>
        <time>2010-10-03T07:15:39Z</time>
      </trkpt>
      <trkpt lat="48.00017" lon="6.88569">
        <ele>864</ele>
        <time>2010-10-03T07:16:12Z</time>
      </trkpt>
      <trkpt lat="48.00007" lon="6.88604">
        <ele>863</ele>
        <time>2010-10-03T07:18:41Z</time>
      </trkpt>
      <trkpt lat="47.99992" lon="6.88637">
        <ele>863</ele>
        <time>2010-10-03T07:18:55Z</time>
      </trkpt>
      <trkpt lat="47.99981" lon="6.88653">
        <ele>864</ele>
        <time>2010-10-03T07:19:08Z</time>
      </trkpt>
      <trkpt lat="47.99968" lon="6.88668">
        <ele>863</ele>
        <time>2010-10-03T07:19:21Z</time>
      </trkpt>
      <trkpt lat="47.9996" lon="6.88688">
        <ele>863</ele>
        <time>2010-10-03T07:19:32Z</time>
      </trkpt>
      <trkpt lat="47.99951" lon="6.88733">
        <ele>863</ele>
        <time>2010-10-03T07:19:52Z</time>
      </trkpt>
      <trkpt lat="47.99935" lon="6.88761">
        <ele>866</ele>
        <time>2010-10-03T07:20:09Z</time>
      </trkpt>
      <trkpt lat="47.99927" lon="6.88778">
        <ele>866</ele>
        <time>2010-10-03T07:20:17Z</time>
      </trkpt>
      <trkpt lat="47.99919" lon="6.88801">
        <ele>868</ele>
        <time>2010-10-03T07:20:27Z</time>
      </trkpt>
      <trkpt lat="47.99916" lon="6.88816">
        <ele>868</ele>
        <time>2010-10-03T07:20:33Z</time>
      </trkpt>
      <trkpt lat="47.99906" lon="6.88867">
        <ele>873</ele>
        <time>2010-10-03T07:20:54Z</time>
      </trkpt>
      <trkpt lat="47.99903" lon="6.88879">
        <ele>873</ele>
        <time>2010-10-03T07:20:59Z</time>
      </trkpt>
      <trkpt lat="47.99899" lon="6.88893">
        <ele>874</ele>
        <time>2010-10-03T07:21:05Z</time>
      </trkpt>
      <trkpt lat="47.99886" lon="6.88949">
        <ele>874</ele>
        <time>2010-10-03T07:21:28Z</time>
      </trkpt>
      <trkpt lat="47.99865" lon="6.89001">
        <ele>879</ele>
        <time>2010-10-03T07:21:53Z</time>
      </trkpt>
      <trkpt lat="47.99861" lon="6.89018">
        <ele>879</ele>
        <time>2010-10-03T07:21:59Z</time>
      </trkpt>
      <trkpt lat="47.99854" lon="6.89064">
        <ele>882</ele>
        <time>2010-10-03T07:22:14Z</time>
      </trkpt>
      <trkpt lat="47.99853" lon="6.89076">
        <ele>882</ele>
        <time>2010-10-03T07:22:18Z</time>
      </trkpt>
      <trkpt lat="47.99849" lon="6.891">
        <ele>883</ele>
        <time>2010-10-03T07:22:26Z</time>
      </trkpt>
      <trkpt lat="47.99846" lon="6.89113">
        <ele>883</ele>
        <time>2010-10-03T07:22:30Z</time>
      </trkpt>
      <trkpt lat="47.99832" lon="6.89151">
        <ele>886</ele>
        <time>2010-10-03T07:22:45Z</time>
      </trkpt>
      <trkpt lat="47.99771" lon="6.89192">
        <ele>896</ele>
        <time>2010-10-03T07:23:26Z</time>
      </trkpt>
      <trkpt lat="47.99729" lon="6.89263">
        <ele>907</ele>
        <time>2010-10-03T07:24:08Z</time>
      </trkpt>
      <trkpt lat="47.9968" lon="6.89326">
        <ele>916</ele>
        <time>2010-10-03T07:24:43Z</time>
      </trkpt>
      <trkpt lat="47.9967" lon="6.89348">
        <ele>916</ele>
        <time>2010-10-03T07:24:49Z</time>
      </trkpt>
      <trkpt lat="47.99665" lon="6.89362">
        <ele>917</ele>
        <time>2010-10-03T07:24:53Z</time>
      </trkpt>
      <trkpt lat="47.99662" lon="6.89374">
        <ele>916</ele>
        <time>2010-10-03T07:24:56Z</time>
      </trkpt>
      <trkpt lat="47.99659" lon="6.89386">
        <ele>916</ele>
        <time>2010-10-03T07:24:59Z</time>
      </trkpt>
      <trkpt lat="47.99655" lon="6.89409">
        <ele>915</ele>
        <time>2010-10-03T07:25:05Z</time>
      </trkpt>
      <trkpt lat="47.99652" lon="6.89421">
        <ele>916</ele>
        <time>2010-10-03T07:25:08Z</time>
      </trkpt>
      <trkpt lat="47.99625" lon="6.89504">
        <ele>916</ele>
        <time>2010-10-03T07:25:28Z</time>
      </trkpt>
      <trkpt lat="47.99622" lon="6.89516">
        <ele>917</ele>
        <time>2010-10-03T07:25:31Z</time>
      </trkpt>
      <trkpt lat="47.99615" lon="6.89537">
        <ele>916</ele>
        <time>2010-10-03T07:25:36Z</time>
      </trkpt>
      <trkpt lat="47.99608" lon="6.89559">
        <ele>916</ele>
        <time>2010-10-03T07:25:41Z</time>
      </trkpt>
      <trkpt lat="47.99604" lon="6.89591">
        <ele>914</ele>
        <time>2010-10-03T07:25:49Z</time>
      </trkpt>
      <trkpt lat="47.99615" lon="6.89636">
        <ele>912</ele>
        <time>2010-10-03T07:26:02Z</time>
      </trkpt>
      <trkpt lat="47.99643" lon="6.89671">
        <ele>912</ele>
        <time>2010-10-03T07:26:21Z</time>
      </trkpt>
      <trkpt lat="47.99657" lon="6.89687">
        <ele>914</ele>
        <time>2010-10-03T07:26:26Z</time>
      </trkpt>
      <trkpt lat="47.99672" lon="6.897">
        <ele>913</ele>
        <time>2010-10-03T07:26:30Z</time>
      </trkpt>
      <trkpt lat="47.99762" lon="6.89811">
        <ele>912</ele>
        <time>2010-10-03T07:26:49Z</time>
      </trkpt>
      <trkpt lat="47.99769" lon="6.89838">
        <ele>911</ele>
        <time>2010-10-03T07:26:52Z</time>
      </trkpt>
      <trkpt lat="47.99773" lon="6.89865">
        <ele>911</ele>
        <time>2010-10-03T07:26:55Z</time>
      </trkpt>
      <trkpt lat="47.99766" lon="6.89915">
        <ele>909</ele>
        <time>2010-10-03T07:27:01Z</time>
      </trkpt>
      <trkpt lat="47.9975" lon="6.89961">
        <ele>909</ele>
        <time>2010-10-03T07:27:07Z</time>
      </trkpt>
      <trkpt lat="47.99742" lon="6.89982">
        <ele>908</ele>
        <time>2010-10-03T07:27:10Z</time>
      </trkpt>
      <trkpt lat="47.99734" lon="6.90004">
        <ele>908</ele>
        <time>2010-10-03T07:27:14Z</time>
      </trkpt>
      <trkpt lat="47.99721" lon="6.90027">
        <ele>909</ele>
        <time>2010-10-03T07:27:18Z</time>
      </trkpt>
      <trkpt lat="47.99582" lon="6.90234">
        <ele>917</ele>
        <time>2010-10-03T07:27:52Z</time>
      </trkpt>
      <trkpt lat="47.99568" lon="6.90307">
        <ele>920</ele>
        <time>2010-10-03T07:28:02Z</time>
      </trkpt>
      <trkpt lat="47.99571" lon="6.90353">
        <ele>921</ele>
        <time>2010-10-03T07:28:10Z</time>
      </trkpt>
      <trkpt lat="47.99571" lon="6.90376">
        <ele>920</ele>
        <time>2010-10-03T07:28:14Z</time>
      </trkpt>
      <trkpt lat="47.99545" lon="6.90396">
        <ele>919</ele>
        <time>2010-10-03T07:28:21Z</time>
      </trkpt>
      <trkpt lat="47.99527" lon="6.90399">
        <ele>916</ele>
        <time>2010-10-03T07:28:26Z</time>
      </trkpt>
      <trkpt lat="47.99503" lon="6.90404">
        <ele>914</ele>
        <time>2010-10-03T07:28:32Z</time>
      </trkpt>
      <trkpt lat="47.99452" lon="6.90435">
        <ele>914</ele>
        <time>2010-10-03T07:28:43Z</time>
      </trkpt>
      <trkpt lat="47.99421" lon="6.90471">
        <ele>914</ele>
        <time>2010-10-03T07:28:51Z</time>
      </trkpt>
      <trkpt lat="47.99407" lon="6.9049">
        <ele>915</ele>
        <time>2010-10-03T07:28:55Z</time>
      </trkpt>
      <trkpt lat="47.99395" lon="6.90512">
        <ele>914</ele>
        <time>2010-10-03T07:28:59Z</time>
      </trkpt>
      <trkpt lat="47.9937" lon="6.9055">
        <ele>916</ele>
        <time>2010-10-03T07:29:07Z</time>
      </trkpt>
      <trkpt lat="47.99366" lon="6.90575">
        <ele>916</ele>
        <time>2010-10-03T07:29:11Z</time>
      </trkpt>
      <trkpt lat="47.99345" lon="6.90631">
        <ele>917</ele>
        <time>2010-10-03T07:29:28Z</time>
      </trkpt>
      <trkpt lat="47.99343" lon="6.90656">
        <ele>913</ele>
        <time>2010-10-03T07:29:36Z</time>
      </trkpt>
      <trkpt lat="47.9935" lon="6.90702">
        <ele>908</ele>
        <time>2010-10-03T07:29:51Z</time>
      </trkpt>
      <trkpt lat="47.99356" lon="6.90724">
        <ele>908</ele>
        <time>2010-10-03T07:29:58Z</time>
      </trkpt>
      <trkpt lat="47.99361" lon="6.9074">
        <ele>907</ele>
        <time>2010-10-03T07:30:03Z</time>
      </trkpt>
      <trkpt lat="47.99372" lon="6.90762">
        <ele>907</ele>
        <time>2010-10-03T07:30:10Z</time>
      </trkpt>
      <trkpt lat="47.99392" lon="6.90801">
        <ele>909</ele>
        <time>2010-10-03T07:30:23Z</time>
      </trkpt>
      <trkpt lat="47.994" lon="6.90837">
        <ele>909</ele>
        <time>2010-10-03T07:30:32Z</time>
      </trkpt>
      <trkpt lat="47.99407" lon="6.90856">
        <ele>910</ele>
        <time>2010-10-03T07:30:38Z</time>
      </trkpt>
      <trkpt lat="47.99446" lon="6.90918">
        <ele>910</ele>
        <time>2010-10-03T07:30:57Z</time>
      </trkpt>
      <trkpt lat="47.99477" lon="6.90952">
        <ele>915</ele>
        <time>2010-10-03T07:31:16Z</time>
      </trkpt>
      <trkpt lat="47.99494" lon="6.90956">
        <ele>921</ele>
        <time>2010-10-03T07:31:25Z</time>
      </trkpt>
      <trkpt lat="47.99521" lon="6.90963">
        <ele>926</ele>
        <time>2010-10-03T07:31:37Z</time>
      </trkpt>
      <trkpt lat="47.99538" lon="6.90968">
        <ele>924</ele>
        <time>2010-10-03T07:31:46Z</time>
      </trkpt>
      <trkpt lat="47.99574" lon="6.90975">
        <ele>924</ele>
        <time>2010-10-03T07:31:59Z</time>
      </trkpt>
      <trkpt lat="47.99593" lon="6.9098">
        <ele>923</ele>
        <time>2010-10-03T07:32:06Z</time>
      </trkpt>
      <trkpt lat="47.99611" lon="6.90983">
        <ele>924</ele>
        <time>2010-10-03T07:32:12Z</time>
      </trkpt>
      <trkpt lat="47.99627" lon="6.90986">
        <ele>923</ele>
        <time>2010-10-03T07:32:18Z</time>
      </trkpt>
      <trkpt lat="47.99643" lon="6.9099">
        <ele>923</ele>
        <time>2010-10-03T07:32:24Z</time>
      </trkpt>
      <trkpt lat="47.997" lon="6.90999">
        <ele>926</ele>
        <time>2010-10-03T07:32:46Z</time>
      </trkpt>
      <trkpt lat="47.99714" lon="6.91009">
        <ele>926</ele>
        <time>2010-10-03T07:32:52Z</time>
      </trkpt>
      <trkpt lat="47.9972" lon="6.91018">
        <ele>925</ele>
        <time>2010-10-03T07:32:55Z</time>
      </trkpt>
      <trkpt lat="47.99729" lon="6.91037">
        <ele>925</ele>
        <time>2010-10-03T07:33:01Z</time>
      </trkpt>
      <trkpt lat="47.99734" lon="6.9105">
        <ele>924</ele>
        <time>2010-10-03T07:33:05Z</time>
      </trkpt>
      <trkpt lat="47.99742" lon="6.9107">
        <ele>925</ele>
        <time>2010-10-03T07:33:12Z</time>
      </trkpt>
      <trkpt lat="47.99751" lon="6.91088">
        <ele>925</ele>
        <time>2010-10-03T07:33:19Z</time>
      </trkpt>
      <trkpt lat="47.9976" lon="6.91111">
        <ele>924</ele>
        <time>2010-10-03T07:33:27Z</time>
      </trkpt>
      <trkpt lat="47.99755" lon="6.91132">
        <ele>924</ele>
        <time>2010-10-03T07:33:35Z</time>
      </trkpt>
      <trkpt lat="47.99744" lon="6.91148">
        <ele>924</ele>
        <time>2010-10-03T07:33:43Z</time>
      </trkpt>
      <trkpt lat="47.99695" lon="6.91241">
        <ele>942</ele>
        <time>2010-10-03T07:34:16Z</time>
      </trkpt>
      <trkpt lat="47.99689" lon="6.91265">
        <ele>944</ele>
        <time>2010-10-03T07:34:22Z</time>
      </trkpt>
      <trkpt lat="47.9968" lon="6.91288">
        <ele>944</ele>
        <time>2010-10-03T07:34:27Z</time>
      </trkpt>
      <trkpt lat="47.99653" lon="6.91306">
        <ele>943</ele>
        <time>2010-10-03T07:34:36Z</time>
      </trkpt>
      <trkpt lat="47.99628" lon="6.91304">
        <ele>940</ele>
        <time>2010-10-03T07:34:43Z</time>
      </trkpt>
      <trkpt lat="47.99612" lon="6.913">
        <ele>936</ele>
        <time>2010-10-03T07:34:48Z</time>
      </trkpt>
      <trkpt lat="47.99598" lon="6.91292">
        <ele>936</ele>
        <time>2010-10-03T07:34:52Z</time>
      </trkpt>
      <trkpt lat="47.99462" lon="6.912">
        <ele>926</ele>
        <time>2010-10-03T07:35:25Z</time>
      </trkpt>
      <trkpt lat="47.99438" lon="6.91197">
        <ele>927</ele>
        <time>2010-10-03T07:35:31Z</time>
      </trkpt>
      <trkpt lat="47.99403" lon="6.91212">
        <ele>925</ele>
        <time>2010-10-03T07:35:39Z</time>
      </trkpt>
      <trkpt lat="47.99388" lon="6.91227">
        <ele>925</ele>
        <time>2010-10-03T07:35:43Z</time>
      </trkpt>
      <trkpt lat="47.99375" lon="6.9124">
        <ele>926</ele>
        <time>2010-10-03T07:35:47Z</time>
      </trkpt>
      <trkpt lat="47.99344" lon="6.91274">
        <ele>925</ele>
        <time>2010-10-03T07:35:56Z</time>
      </trkpt>
      <trkpt lat="47.99328" lon="6.9131">
        <ele>926</ele>
        <time>2010-10-03T07:36:01Z</time>
      </trkpt>
      <trkpt lat="47.9931" lon="6.91358">
        <ele>929</ele>
        <time>2010-10-03T07:36:08Z</time>
      </trkpt>
      <trkpt lat="47.99297" lon="6.91378">
        <ele>929</ele>
        <time>2010-10-03T07:36:13Z</time>
      </trkpt>
      <trkpt lat="47.99273" lon="6.91439">
        <ele>932</ele>
        <time>2010-10-03T07:36:21Z</time>
      </trkpt>
      <trkpt lat="47.99264" lon="6.91492">
        <ele>935</ele>
        <time>2010-10-03T07:36:26Z</time>
      </trkpt>
      <trkpt lat="47.99258" lon="6.91561">
        <ele>936</ele>
        <time>2010-10-03T07:36:33Z</time>
      </trkpt>
      <trkpt lat="47.99251" lon="6.91596">
        <ele>935</ele>
        <time>2010-10-03T07:36:37Z</time>
      </trkpt>
      <trkpt lat="47.99238" lon="6.91623">
        <ele>932</ele>
        <time>2010-10-03T07:36:41Z</time>
      </trkpt>
      <trkpt lat="47.9921" lon="6.91652">
        <ele>919</ele>
        <time>2010-10-03T07:36:57Z</time>
      </trkpt>
      <trkpt lat="47.99201" lon="6.91651">
        <ele>909</ele>
        <time>2010-10-03T07:37:23Z</time>
      </trkpt>
      <trkpt lat="47.99192" lon="6.91672">
        <ele>893</ele>
        <time>2010-10-03T07:38:03Z</time>
      </trkpt>
      <trkpt lat="47.99189" lon="6.91699">
        <ele>890</ele>
        <time>2010-10-03T07:38:26Z</time>
      </trkpt>
      <trkpt lat="47.99194" lon="6.91727">
        <ele>890</ele>
        <time>2010-10-03T07:38:39Z</time>
      </trkpt>
      <trkpt lat="47.99181" lon="6.9177">
        <ele>878</ele>
        <time>2010-10-03T07:39:10Z</time>
      </trkpt>
      <trkpt lat="47.99196" lon="6.91753">
        <ele>872</ele>
        <time>2010-10-03T07:40:06Z</time>
      </trkpt>
      <trkpt lat="47.99244" lon="6.91719">
        <ele>870</ele>
        <time>2010-10-03T07:40:22Z</time>
      </trkpt>
      <trkpt lat="47.99277" lon="6.917">
        <ele>864</ele>
        <time>2010-10-03T07:40:37Z</time>
      </trkpt>
      <trkpt lat="47.993" lon="6.91673">
        <ele>858</ele>
        <time>2010-10-03T07:41:08Z</time>
      </trkpt>
      <trkpt lat="47.99309" lon="6.91652">
        <ele>857</ele>
        <time>2010-10-03T07:41:13Z</time>
      </trkpt>
      <trkpt lat="47.99331" lon="6.91565">
        <ele>855</ele>
        <time>2010-10-03T07:41:42Z</time>
      </trkpt>
      <trkpt lat="47.99362" lon="6.91499">
        <ele>842</ele>
        <time>2010-10-03T07:42:12Z</time>
      </trkpt>
      <trkpt lat="47.99376" lon="6.91478">
        <ele>841</ele>
        <time>2010-10-03T07:42:19Z</time>
      </trkpt>
      <trkpt lat="47.9939" lon="6.91459">
        <ele>837</ele>
        <time>2010-10-03T07:42:26Z</time>
      </trkpt>
      <trkpt lat="47.99429" lon="6.91432">
        <ele>838</ele>
        <time>2010-10-03T07:42:50Z</time>
      </trkpt>
      <trkpt lat="47.99462" lon="6.91422">
        <ele>835</ele>
        <time>2010-10-03T07:43:04Z</time>
      </trkpt>
      <trkpt lat="47.99457" lon="6.91444">
        <ele>840</ele>
        <time>2010-10-03T07:43:31Z</time>
      </trkpt>
      <trkpt lat="47.99483" lon="6.91439">
        <ele>817</ele>
        <time>2010-10-03T07:44:00Z</time>
      </trkpt>
      <trkpt lat="47.995" lon="6.91435">
        <ele>819</ele>
        <time>2010-10-03T07:44:15Z</time>
      </trkpt>
      <trkpt lat="47.99532" lon="6.91443">
        <ele>824</ele>
        <time>2010-10-03T07:44:30Z</time>
      </trkpt>
      <trkpt lat="47.99554" lon="6.9146">
        <ele>825</ele>
        <time>2010-10-03T07:44:40Z</time>
      </trkpt>
      <trkpt lat="47.9961" lon="6.91524">
        <ele>819</ele>
        <time>2010-10-03T07:45:10Z</time>
      </trkpt>
      <trkpt lat="47.99674" lon="6.91571">
        <ele>808</ele>
        <time>2010-10-03T07:45:51Z</time>
      </trkpt>
      <trkpt lat="47.99702" lon="6.91581">
        <ele>803</ele>
        <time>2010-10-03T07:46:08Z</time>
      </trkpt>
      <trkpt lat="47.99716" lon="6.91597">
        <ele>806</ele>
        <time>2010-10-03T07:46:25Z</time>
      </trkpt>
      <trkpt lat="47.99674" lon="6.91617">
        <ele>802</ele>
        <time>2010-10-03T07:46:37Z</time>
      </trkpt>
      <trkpt lat="47.99622" lon="6.91626">
        <ele>797</ele>
        <time>2010-10-03T07:46:50Z</time>
      </trkpt>
      <trkpt lat="47.99662" lon="6.91656">
        <ele>790</ele>
        <time>2010-10-03T07:47:20Z</time>
      </trkpt>
      <trkpt lat="47.99789" lon="6.91744">
        <ele>774</ele>
        <time>2010-10-03T07:47:54Z</time>
      </trkpt>
      <trkpt lat="47.99833" lon="6.9174">
        <ele>765</ele>
        <time>2010-10-03T07:48:03Z</time>
      </trkpt>
      <trkpt lat="47.99886" lon="6.91706">
        <ele>732</ele>
        <time>2010-10-03T07:48:19Z</time>
      </trkpt>
      <trkpt lat="47.9989" lon="6.91723">
        <ele>729</ele>
        <time>2010-10-03T07:48:23Z</time>
      </trkpt>
      <trkpt lat="47.99894" lon="6.91732">
        <ele>725</ele>
        <time>2010-10-03T07:49:02Z</time>
      </trkpt>
      <trkpt lat="47.99896" lon="6.91734">
        <ele>729</ele>
        <time>2010-10-03T07:50:43Z</time>
      </trkpt>
      <trkpt lat="47.99907" lon="6.91715">
        <ele>730</ele>
        <time>2010-10-03T07:51:11Z</time>
      </trkpt>
      <trkpt lat="47.99924" lon="6.91702">
        <ele>727</ele>
        <time>2010-10-03T07:51:15Z</time>
      </trkpt>
      <trkpt lat="47.99942" lon="6.91704">
        <ele>727</ele>
        <time>2010-10-03T07:51:18Z</time>
      </trkpt>
      <trkpt lat="47.9999" lon="6.91703">
        <ele>727</ele>
        <time>2010-10-03T07:51:24Z</time>
      </trkpt>
      <trkpt lat="48.00026" lon="6.91686">
        <ele>723</ele>
        <time>2010-10-03T07:51:29Z</time>
      </trkpt>
      <trkpt lat="48.00039" lon="6.91673">
        <ele>721</ele>
        <time>2010-10-03T07:51:33Z</time>
      </trkpt>
      <trkpt lat="48.0005" lon="6.91692">
        <ele>717</ele>
        <time>2010-10-03T07:51:46Z</time>
      </trkpt>
      <trkpt lat="48.0004" lon="6.91713">
        <ele>717</ele>
        <time>2010-10-03T07:51:51Z</time>
      </trkpt>
      <trkpt lat="48.00031" lon="6.91733">
        <ele>717</ele>
        <time>2010-10-03T07:51:58Z</time>
      </trkpt>
      <trkpt lat="48.00029" lon="6.91757">
        <ele>718</ele>
        <time>2010-10-03T07:52:07Z</time>
      </trkpt>
      <trkpt lat="48.00025" lon="6.91793">
        <ele>718</ele>
        <time>2010-10-03T07:52:20Z</time>
      </trkpt>
      <trkpt lat="48.0003" lon="6.91814">
        <ele>718</ele>
        <time>2010-10-03T07:52:28Z</time>
      </trkpt>
      <trkpt lat="48.00035" lon="6.91833">
        <ele>720</ele>
        <time>2010-10-03T07:52:34Z</time>
      </trkpt>
      <trkpt lat="48.00045" lon="6.91852">
        <ele>719</ele>
        <time>2010-10-03T07:52:40Z</time>
      </trkpt>
      <trkpt lat="48.00056" lon="6.9186">
        <ele>718</ele>
        <time>2010-10-03T07:52:45Z</time>
      </trkpt>
      <trkpt lat="48.00091" lon="6.91867">
        <ele>720</ele>
        <time>2010-10-03T07:53:00Z</time>
      </trkpt>
      <trkpt lat="48.00099" lon="6.91887">
        <ele>721</ele>
        <time>2010-10-03T07:53:09Z</time>
      </trkpt>
      <trkpt lat="48.0009" lon="6.91908">
        <ele>725</ele>
        <time>2010-10-03T07:53:17Z</time>
      </trkpt>
      <trkpt lat="48.00066" lon="6.91985">
        <ele>730</ele>
        <time>2010-10-03T07:53:44Z</time>
      </trkpt>
      <trkpt lat="48.00063" lon="6.92025">
        <ele>730</ele>
        <time>2010-10-03T07:53:58Z</time>
      </trkpt>
      <trkpt lat="48.00063" lon="6.9205">
        <ele>731</ele>
        <time>2010-10-03T07:54:07Z</time>
      </trkpt>
      <trkpt lat="48.00058" lon="6.92074">
        <ele>731</ele>
        <time>2010-10-03T07:54:17Z</time>
      </trkpt>
      <trkpt lat="48.0005" lon="6.92078">
        <ele>730</ele>
        <time>2010-10-03T07:54:23Z</time>
      </trkpt>
      <trkpt lat="48.00033" lon="6.92074">
        <ele>733</ele>
        <time>2010-10-03T07:54:31Z</time>
      </trkpt>
      <trkpt lat="48.00024" lon="6.92074">
        <ele>733</ele>
        <time>2010-10-03T07:54:35Z</time>
      </trkpt>
      <trkpt lat="47.99998" lon="6.92082">
        <ele>736</ele>
        <time>2010-10-03T07:54:43Z</time>
      </trkpt>
      <trkpt lat="47.99982" lon="6.92089">
        <ele>736</ele>
        <time>2010-10-03T07:54:47Z</time>
      </trkpt>
      <trkpt lat="47.99966" lon="6.92081">
        <ele>737</ele>
        <time>2010-10-03T07:54:51Z</time>
      </trkpt>
      <trkpt lat="47.99952" lon="6.92067">
        <ele>736</ele>
        <time>2010-10-03T07:54:55Z</time>
      </trkpt>
      <trkpt lat="47.99935" lon="6.92069">
        <ele>736</ele>
        <time>2010-10-03T07:54:59Z</time>
      </trkpt>
      <trkpt lat="47.99921" lon="6.92077">
        <ele>736</ele>
        <time>2010-10-03T07:55:09Z</time>
      </trkpt>
      <trkpt lat="47.99905" lon="6.92071">
        <ele>737</ele>
        <time>2010-10-03T07:55:21Z</time>
      </trkpt>
      <trkpt lat="47.99888" lon="6.9207">
        <ele>736</ele>
        <time>2010-10-03T07:55:29Z</time>
      </trkpt>
      <trkpt lat="47.99857" lon="6.92059">
        <ele>741</ele>
        <time>2010-10-03T07:55:52Z</time>
      </trkpt>
      <trkpt lat="47.9985" lon="6.92054">
        <ele>741</ele>
        <time>2010-10-03T07:57:17Z</time>
      </trkpt>
      <trkpt lat="47.9985" lon="6.92081">
        <ele>757</ele>
        <time>2010-10-03T07:58:31Z</time>
      </trkpt>
      <trkpt lat="47.9985" lon="6.92105">
        <ele>756</ele>
        <time>2010-10-03T07:58:40Z</time>
      </trkpt>
      <trkpt lat="47.99851" lon="6.92132">
        <ele>758</ele>
        <time>2010-10-03T07:58:50Z</time>
      </trkpt>
      <trkpt lat="47.9985" lon="6.92151">
        <ele>757</ele>
        <time>2010-10-03T07:58:57Z</time>
      </trkpt>
      <trkpt lat="47.99842" lon="6.92171">
        <ele>757</ele>
        <time>2010-10-03T07:59:05Z</time>
      </trkpt>
      <trkpt lat="47.99837" lon="6.92182">
        <ele>756</ele>
        <time>2010-10-03T07:59:10Z</time>
      </trkpt>
      <trkpt lat="47.99831" lon="6.9225">
        <ele>756</ele>
        <time>2010-10-03T07:59:38Z</time>
      </trkpt>
      <trkpt lat="47.99841" lon="6.92297">
        <ele>756</ele>
        <time>2010-10-03T07:59:50Z</time>
      </trkpt>
      <trkpt lat="47.99874" lon="6.92366">
        <ele>762</ele>
        <time>2010-10-03T08:00:13Z</time>
      </trkpt>
      <trkpt lat="47.9988" lon="6.92391">
        <ele>762</ele>
        <time>2010-10-03T08:00:19Z</time>
      </trkpt>
      <trkpt lat="47.99899" lon="6.92457">
        <ele>765</ele>
        <time>2010-10-03T08:00:37Z</time>
      </trkpt>
      <trkpt lat="47.99905" lon="6.92481">
        <ele>765</ele>
        <time>2010-10-03T08:00:44Z</time>
      </trkpt>
      <trkpt lat="47.99911" lon="6.92506">
        <ele>766</ele>
        <time>2010-10-03T08:00:51Z</time>
      </trkpt>
      <trkpt lat="47.99918" lon="6.92526">
        <ele>766</ele>
        <time>2010-10-03T08:00:57Z</time>
      </trkpt>
      <trkpt lat="47.99922" lon="6.92543">
        <ele>767</ele>
        <time>2010-10-03T08:01:01Z</time>
      </trkpt>
      <trkpt lat="47.99935" lon="6.92584">
        <ele>765</ele>
        <time>2010-10-03T08:01:11Z</time>
      </trkpt>
      <trkpt lat="47.99955" lon="6.92622">
        <ele>765</ele>
        <time>2010-10-03T08:01:22Z</time>
      </trkpt>
      <trkpt lat="47.99979" lon="6.92653">
        <ele>767</ele>
        <time>2010-10-03T08:01:32Z</time>
      </trkpt>
      <trkpt lat="47.99993" lon="6.92668">
        <ele>766</ele>
        <time>2010-10-03T08:01:37Z</time>
      </trkpt>
      <trkpt lat="48.00012" lon="6.92694">
        <ele>766</ele>
        <time>2010-10-03T08:01:42Z</time>
      </trkpt>
      <trkpt lat="48.00066" lon="6.92821">
        <ele>757</ele>
        <time>2010-10-03T08:02:00Z</time>
      </trkpt>
      <trkpt lat="48.00078" lon="6.92842">
        <ele>758</ele>
        <time>2010-10-03T08:02:03Z</time>
      </trkpt>
      <trkpt lat="48.00106" lon="6.92917">
        <ele>758</ele>
        <time>2010-10-03T08:02:12Z</time>
      </trkpt>
      <trkpt lat="48.00128" lon="6.9298">
        <ele>755</ele>
        <time>2010-10-03T08:02:30Z</time>
      </trkpt>
      <trkpt lat="48.00142" lon="6.92999">
        <ele>758</ele>
        <time>2010-10-03T08:04:50Z</time>
      </trkpt>
      <trkpt lat="48.00153" lon="6.93015">
        <ele>757</ele>
        <time>2010-10-03T08:04:54Z</time>
      </trkpt>
      <trkpt lat="48.00183" lon="6.93042">
        <ele>751</ele>
        <time>2010-10-03T08:05:02Z</time>
      </trkpt>
      <trkpt lat="48.00222" lon="6.93052">
        <ele>750</ele>
        <time>2010-10-03T08:05:10Z</time>
      </trkpt>
      <trkpt lat="48.00262" lon="6.93086">
        <ele>750</ele>
        <time>2010-10-03T08:05:17Z</time>
      </trkpt>
      <trkpt lat="48.0028" lon="6.93093">
        <ele>749</ele>
        <time>2010-10-03T08:05:21Z</time>
      </trkpt>
      <trkpt lat="48.00278" lon="6.93118">
        <ele>748</ele>
        <time>2010-10-03T08:05:28Z</time>
      </trkpt>
      <trkpt lat="48.00273" lon="6.93177">
        <ele>741</ele>
        <time>2010-10-03T08:05:40Z</time>
      </trkpt>
      <trkpt lat="48.00274" lon="6.93204">
        <ele>741</ele>
        <time>2010-10-03T08:05:45Z</time>
      </trkpt>
      <trkpt lat="48.00283" lon="6.93346">
        <ele>754</ele>
        <time>2010-10-03T08:06:15Z</time>
      </trkpt>
      <trkpt lat="48.00286" lon="6.9337">
        <ele>756</ele>
        <time>2010-10-03T08:06:20Z</time>
      </trkpt>
      <trkpt lat="48.0029" lon="6.93393">
        <ele>756</ele>
        <time>2010-10-03T08:06:25Z</time>
      </trkpt>
      <trkpt lat="48.00296" lon="6.93413">
        <ele>755</ele>
        <time>2010-10-03T08:06:30Z</time>
      </trkpt>
      <trkpt lat="48.00315" lon="6.93437">
        <ele>756</ele>
        <time>2010-10-03T08:06:37Z</time>
      </trkpt>
      <trkpt lat="48.00365" lon="6.93498">
        <ele>753</ele>
        <time>2010-10-03T08:06:46Z</time>
      </trkpt>
      <trkpt lat="48.00375" lon="6.93549">
        <ele>753</ele>
        <time>2010-10-03T08:06:54Z</time>
      </trkpt>
      <trkpt lat="48.00377" lon="6.93569">
        <ele>754</ele>
        <time>2010-10-03T08:06:58Z</time>
      </trkpt>
      <trkpt lat="48.0038" lon="6.93597">
        <ele>753</ele>
        <time>2010-10-03T08:07:03Z</time>
      </trkpt>
      <trkpt lat="48.00384" lon="6.93618">
        <ele>753</ele>
        <time>2010-10-03T08:07:06Z</time>
      </trkpt>
      <trkpt lat="48.00393" lon="6.93645">
        <ele>751</ele>
        <time>2010-10-03T08:07:10Z</time>
      </trkpt>
      <trkpt lat="48.00401" lon="6.93669">
        <ele>752</ele>
        <time>2010-10-03T08:07:14Z</time>
      </trkpt>
      <trkpt lat="48.0042" lon="6.9372">
        <ele>752</ele>
        <time>2010-10-03T08:07:23Z</time>
      </trkpt>
      <trkpt lat="48.00434" lon="6.93737">
        <ele>753</ele>
        <time>2010-10-03T08:07:28Z</time>
      </trkpt>
      <trkpt lat="48.00443" lon="6.93746">
        <ele>752</ele>
        <time>2010-10-03T08:07:32Z</time>
      </trkpt>
      <trkpt lat="48.00459" lon="6.93752">
        <ele>752</ele>
        <time>2010-10-03T08:07:38Z</time>
      </trkpt>
      <trkpt lat="48.00551" lon="6.93841">
        <ele>744</ele>
        <time>2010-10-03T08:08:09Z</time>
      </trkpt>
      <trkpt lat="48.00564" lon="6.93858">
        <ele>742</ele>
        <time>2010-10-03T08:08:14Z</time>
      </trkpt>
      <trkpt lat="48.00578" lon="6.93875">
        <ele>743</ele>
        <time>2010-10-03T08:08:19Z</time>
      </trkpt>
      <trkpt lat="48.00591" lon="6.93894">
        <ele>743</ele>
        <time>2010-10-03T08:08:23Z</time>
      </trkpt>
      <trkpt lat="48.00618" lon="6.93919">
        <ele>745</ele>
        <time>2010-10-03T08:08:29Z</time>
      </trkpt>
      <trkpt lat="48.00635" lon="6.93921">
        <ele>746</ele>
        <time>2010-10-03T08:08:33Z</time>
      </trkpt>
      <trkpt lat="48.00652" lon="6.93896">
        <ele>748</ele>
        <time>2010-10-03T08:08:37Z</time>
      </trkpt>
      <trkpt lat="48.00672" lon="6.93849">
        <ele>750</ele>
        <time>2010-10-03T08:08:43Z</time>
      </trkpt>
      <trkpt lat="48.00716" lon="6.93766">
        <ele>751</ele>
        <time>2010-10-03T08:08:57Z</time>
      </trkpt>
      <trkpt lat="48.00733" lon="6.93755">
        <ele>751</ele>
        <time>2010-10-03T08:09:01Z</time>
      </trkpt>
      <trkpt lat="48.00753" lon="6.9375">
        <ele>749</ele>
        <time>2010-10-03T08:09:07Z</time>
      </trkpt>
      <trkpt lat="48.00766" lon="6.93763">
        <ele>750</ele>
        <time>2010-10-03T08:09:11Z</time>
      </trkpt>
      <trkpt lat="48.00774" lon="6.9377">
        <ele>750</ele>
        <time>2010-10-03T08:09:13Z</time>
      </trkpt>
      <trkpt lat="48.00788" lon="6.93783">
        <ele>748</ele>
        <time>2010-10-03T08:09:17Z</time>
      </trkpt>
      <trkpt lat="48.00849" lon="6.93834">
        <ele>748</ele>
        <time>2010-10-03T08:09:37Z</time>
      </trkpt>
      <trkpt lat="48.00861" lon="6.93848">
        <ele>749</ele>
        <time>2010-10-03T08:09:41Z</time>
      </trkpt>
      <trkpt lat="48.00873" lon="6.93866">
        <ele>748</ele>
        <time>2010-10-03T08:09:45Z</time>
      </trkpt>
      <trkpt lat="48.00883" lon="6.93886">
        <ele>748</ele>
        <time>2010-10-03T08:09:49Z</time>
      </trkpt>
      <trkpt lat="48.0089" lon="6.93908">
        <ele>749</ele>
        <time>2010-10-03T08:09:53Z</time>
      </trkpt>
      <trkpt lat="48.00916" lon="6.93964">
        <ele>749</ele>
        <time>2010-10-03T08:10:03Z</time>
      </trkpt>
      <trkpt lat="48.00953" lon="6.94">
        <ele>749</ele>
        <time>2010-10-03T08:10:13Z</time>
      </trkpt>
      <trkpt lat="48.0099" lon="6.94035">
        <ele>753</ele>
        <time>2010-10-03T08:10:28Z</time>
      </trkpt>
      <trkpt lat="48.01005" lon="6.94049">
        <ele>752</ele>
        <time>2010-10-03T08:10:33Z</time>
      </trkpt>
      <trkpt lat="48.01047" lon="6.94097">
        <ele>752</ele>
        <time>2010-10-03T08:10:50Z</time>
      </trkpt>
      <trkpt lat="48.01062" lon="6.94103">
        <ele>753</ele>
        <time>2010-10-03T08:11:01Z</time>
      </trkpt>
      <trkpt lat="48.01072" lon="6.94083">
        <ele>754</ele>
        <time>2010-10-03T08:11:06Z</time>
      </trkpt>
      <trkpt lat="48.0111" lon="6.94003">
        <ele>759</ele>
        <time>2010-10-03T08:11:25Z</time>
      </trkpt>
      <trkpt lat="48.01125" lon="6.9401">
        <ele>760</ele>
        <time>2010-10-03T08:11:31Z</time>
      </trkpt>
      <trkpt lat="48.01139" lon="6.94023">
        <ele>761</ele>
        <time>2010-10-03T08:11:36Z</time>
      </trkpt>
      <trkpt lat="48.01147" lon="6.94031">
        <ele>761</ele>
        <time>2010-10-03T08:11:39Z</time>
      </trkpt>
      <trkpt lat="48.01161" lon="6.94043">
        <ele>762</ele>
        <time>2010-10-03T08:11:44Z</time>
      </trkpt>
      <trkpt lat="48.01181" lon="6.94057">
        <ele>762</ele>
        <time>2010-10-03T08:11:51Z</time>
      </trkpt>
      <trkpt lat="48.01195" lon="6.94066">
        <ele>763</ele>
        <time>2010-10-03T08:11:56Z</time>
      </trkpt>
      <trkpt lat="48.01204" lon="6.94071">
        <ele>762</ele>
        <time>2010-10-03T08:11:59Z</time>
      </trkpt>
      <trkpt lat="48.01254" lon="6.94104">
        <ele>765</ele>
        <time>2010-10-03T08:12:18Z</time>
      </trkpt>
      <trkpt lat="48.0127" lon="6.94114">
        <ele>764</ele>
        <time>2010-10-03T08:12:24Z</time>
      </trkpt>
      <trkpt lat="48.01285" lon="6.9412">
        <ele>766</ele>
        <time>2010-10-03T08:12:30Z</time>
      </trkpt>
      <trkpt lat="48.01299" lon="6.94125">
        <ele>765</ele>
        <time>2010-10-03T08:12:34Z</time>
      </trkpt>
      <trkpt lat="48.01337" lon="6.94143">
        <ele>768</ele>
        <time>2010-10-03T08:12:59Z</time>
      </trkpt>
      <trkpt lat="48.01332" lon="6.94131">
        <ele>770</ele>
        <time>2010-10-03T08:13:07Z</time>
      </trkpt>
      <trkpt lat="48.01324" lon="6.94118">
        <ele>771</ele>
        <time>2010-10-03T08:13:12Z</time>
      </trkpt>
      <trkpt lat="48.01318" lon="6.94095">
        <ele>771</ele>
        <time>2010-10-03T08:13:19Z</time>
      </trkpt>
      <trkpt lat="48.01284" lon="6.94038">
        <ele>776</ele>
        <time>2010-10-03T08:13:42Z</time>
      </trkpt>
      <trkpt lat="48.01276" lon="6.9403">
        <ele>776</ele>
        <time>2010-10-03T08:13:46Z</time>
      </trkpt>
      <trkpt lat="48.01262" lon="6.94019">
        <ele>779</ele>
        <time>2010-10-03T08:13:53Z</time>
      </trkpt>
      <trkpt lat="48.01238" lon="6.94001">
        <ele>781</ele>
        <time>2010-10-03T08:14:06Z</time>
      </trkpt>
      <trkpt lat="48.01219" lon="6.93964">
        <ele>787</ele>
        <time>2010-10-03T08:14:25Z</time>
      </trkpt>
      <trkpt lat="48.01191" lon="6.93936">
        <ele>790</ele>
        <time>2010-10-03T08:14:45Z</time>
      </trkpt>
      <trkpt lat="48.01184" lon="6.93926">
        <ele>790</ele>
        <time>2010-10-03T08:14:51Z</time>
      </trkpt>
      <trkpt lat="48.01157" lon="6.93869">
        <ele>796</ele>
        <time>2010-10-03T08:15:24Z</time>
      </trkpt>
      <trkpt lat="48.01113" lon="6.93827">
        <ele>810</ele>
        <time>2010-10-03T08:16:01Z</time>
      </trkpt>
      <trkpt lat="48.01103" lon="6.93816">
        <ele>810</ele>
        <time>2010-10-03T08:16:10Z</time>
      </trkpt>
      <trkpt lat="48.01075" lon="6.93761">
        <ele>823</ele>
        <time>2010-10-03T08:16:52Z</time>
      </trkpt>
      <trkpt lat="48.01066" lon="6.93742">
        <ele>826</ele>
        <time>2010-10-03T08:17:02Z</time>
      </trkpt>
      <trkpt lat="48.01037" lon="6.93686">
        <ele>830</ele>
        <time>2010-10-03T08:17:38Z</time>
      </trkpt>
      <trkpt lat="48.01029" lon="6.93652">
        <ele>829</ele>
        <time>2010-10-03T08:17:55Z</time>
      </trkpt>
      <trkpt lat="48.01044" lon="6.93659">
        <ele>831</ele>
        <time>2010-10-03T08:18:16Z</time>
      </trkpt>
      <trkpt lat="48.01078" lon="6.93692">
        <ele>838</ele>
        <time>2010-10-03T08:18:46Z</time>
      </trkpt>
      <trkpt lat="48.0112" lon="6.93729">
        <ele>849</ele>
        <time>2010-10-03T08:19:16Z</time>
      </trkpt>
      <trkpt lat="48.01151" lon="6.9375">
        <ele>852</ele>
        <time>2010-10-03T08:19:34Z</time>
      </trkpt>
      <trkpt lat="48.0117" lon="6.93752">
        <ele>853</ele>
        <time>2010-10-03T08:19:48Z</time>
      </trkpt>
      <trkpt lat="48.01207" lon="6.93781">
        <ele>862</ele>
        <time>2010-10-03T08:20:15Z</time>
      </trkpt>
      <trkpt lat="48.0122" lon="6.93795">
        <ele>861</ele>
        <time>2010-10-03T08:20:25Z</time>
      </trkpt>
      <trkpt lat="48.0124" lon="6.93802">
        <ele>864</ele>
        <time>2010-10-03T08:20:40Z</time>
      </trkpt>
      <trkpt lat="48.01299" lon="6.93799">
        <ele>879</ele>
        <time>2010-10-03T08:21:20Z</time>
      </trkpt>
      <trkpt lat="48.01366" lon="6.93796">
        <ele>883</ele>
        <time>2010-10-03T08:22:03Z</time>
      </trkpt>
      <trkpt lat="48.01417" lon="6.93801">
        <ele>894</ele>
        <time>2010-10-03T08:22:41Z</time>
      </trkpt>
      <trkpt lat="48.01434" lon="6.93802">
        <ele>895</ele>
        <time>2010-10-03T08:22:50Z</time>
      </trkpt>
      <trkpt lat="48.01452" lon="6.93797">
        <ele>895</ele>
        <time>2010-10-03T08:23:02Z</time>
      </trkpt>
      <trkpt lat="48.01471" lon="6.93786">
        <ele>898</ele>
        <time>2010-10-03T08:23:19Z</time>
      </trkpt>
      <trkpt lat="48.0149" lon="6.93781">
        <ele>899</ele>
        <time>2010-10-03T08:23:33Z</time>
      </trkpt>
      <trkpt lat="48.01565" lon="6.93773">
        <ele>911</ele>
        <time>2010-10-03T08:24:12Z</time>
      </trkpt>
      <trkpt lat="48.0158" lon="6.93773">
        <ele>914</ele>
        <time>2010-10-03T08:24:21Z</time>
      </trkpt>
      <trkpt lat="48.01618" lon="6.93768">
        <ele>916</ele>
        <time>2010-10-03T08:24:42Z</time>
      </trkpt>
      <trkpt lat="48.01634" lon="6.93767">
        <ele>920</ele>
        <time>2010-10-03T08:24:59Z</time>
      </trkpt>
      <trkpt lat="48.01686" lon="6.93753">
        <ele>920</ele>
        <time>2010-10-03T08:25:35Z</time>
      </trkpt>
      <trkpt lat="48.01713" lon="6.9374">
        <ele>920</ele>
        <time>2010-10-03T08:25:50Z</time>
      </trkpt>
      <trkpt lat="48.0173" lon="6.93739">
        <ele>924</ele>
        <time>2010-10-03T08:26:01Z</time>
      </trkpt>
      <trkpt lat="48.01747" lon="6.93748">
        <ele>929</ele>
        <time>2010-10-03T08:26:14Z</time>
      </trkpt>
      <trkpt lat="48.01802" lon="6.93808">
        <ele>941</ele>
        <time>2010-10-03T08:26:45Z</time>
      </trkpt>
      <trkpt lat="48.0183" lon="6.93834">
        <ele>947</ele>
        <time>2010-10-03T08:27:04Z</time>
      </trkpt>
      <trkpt lat="48.0185" lon="6.93851">
        <ele>948</ele>
        <time>2010-10-03T08:27:17Z</time>
      </trkpt>
      <trkpt lat="48.01861" lon="6.93869">
        <ele>952</ele>
        <time>2010-10-03T08:27:27Z</time>
      </trkpt>
      <trkpt lat="48.01897" lon="6.93962">
        <ele>963</ele>
        <time>2010-10-03T08:28:05Z</time>
      </trkpt>
      <trkpt lat="48.01921" lon="6.94048">
        <ele>973</ele>
        <time>2010-10-03T08:28:43Z</time>
      </trkpt>
      <trkpt lat="48.01954" lon="6.94098">
        <ele>976</ele>
        <time>2010-10-03T08:29:12Z</time>
      </trkpt>
      <trkpt lat="48.0197" lon="6.94121">
        <ele>983</ele>
        <time>2010-10-03T08:29:32Z</time>
      </trkpt>
      <trkpt lat="48.01998" lon="6.94167">
        <ele>986</ele>
        <time>2010-10-03T08:29:51Z</time>
      </trkpt>
      <trkpt lat="48.0204" lon="6.94209">
        <ele>995</ele>
        <time>2010-10-03T08:30:22Z</time>
      </trkpt>
      <trkpt lat="48.02055" lon="6.94213">
        <ele>998</ele>
        <time>2010-10-03T08:30:39Z</time>
      </trkpt>
      <trkpt lat="48.02047" lon="6.94201">
        <ele>993</ele>
        <time>2010-10-03T08:36:50Z</time>
      </trkpt>
      <trkpt lat="48.02038" lon="6.94181">
        <ele>994</ele>
        <time>2010-10-03T08:36:58Z</time>
      </trkpt>
      <trkpt lat="48.02032" lon="6.94159">
        <ele>993</ele>
        <time>2010-10-03T08:37:07Z</time>
      </trkpt>
      <trkpt lat="48.02029" lon="6.94147">
        <ele>993</ele>
        <time>2010-10-03T08:37:12Z</time>
      </trkpt>
      <trkpt lat="48.0203" lon="6.94123">
        <ele>991</ele>
        <time>2010-10-03T08:37:22Z</time>
      </trkpt>
      <trkpt lat="48.02026" lon="6.94105">
        <ele>992</ele>
        <time>2010-10-03T08:37:32Z</time>
      </trkpt>
      <trkpt lat="48.02017" lon="6.94087">
        <ele>993</ele>
        <time>2010-10-03T08:37:48Z</time>
      </trkpt>
      <trkpt lat="48.01998" lon="6.94047">
        <ele>1001</ele>
        <time>2010-10-03T08:38:17Z</time>
      </trkpt>
      <trkpt lat="48.01989" lon="6.94026">
        <ele>1001</ele>
        <time>2010-10-03T08:38:27Z</time>
      </trkpt>
      <trkpt lat="48.01982" lon="6.94005">
        <ele>1002</ele>
        <time>2010-10-03T08:38:36Z</time>
      </trkpt>
      <trkpt lat="48.01979" lon="6.93982">
        <ele>1001</ele>
        <time>2010-10-03T08:38:47Z</time>
      </trkpt>
      <trkpt lat="48.01984" lon="6.9397">
        <ele>1001</ele>
        <time>2010-10-03T08:38:54Z</time>
      </trkpt>
      <trkpt lat="48.01991" lon="6.93956">
        <ele>1001</ele>
        <time>2010-10-03T08:39:02Z</time>
      </trkpt>
      <trkpt lat="48.01998" lon="6.93923">
        <ele>1004</ele>
        <time>2010-10-03T08:39:19Z</time>
      </trkpt>
      <trkpt lat="48.01986" lon="6.9388">
        <ele>1007</ele>
        <time>2010-10-03T08:39:39Z</time>
      </trkpt>
      <trkpt lat="48.01982" lon="6.93858">
        <ele>1007</ele>
        <time>2010-10-03T08:39:49Z</time>
      </trkpt>
      <trkpt lat="48.0198" lon="6.93845">
        <ele>1010</ele>
        <time>2010-10-03T08:39:55Z</time>
      </trkpt>
      <trkpt lat="48.0198" lon="6.93775">
        <ele>1019</ele>
        <time>2010-10-03T08:40:28Z</time>
      </trkpt>
      <trkpt lat="48.01985" lon="6.9373">
        <ele>1024</ele>
        <time>2010-10-03T08:40:49Z</time>
      </trkpt>
      <trkpt lat="48.01997" lon="6.93698">
        <ele>1025</ele>
        <time>2010-10-03T08:41:08Z</time>
      </trkpt>
      <trkpt lat="48.02005" lon="6.93676">
        <ele>1028</ele>
        <time>2010-10-03T08:41:25Z</time>
      </trkpt>
      <trkpt lat="48.02007" lon="6.93653">
        <ele>1028</ele>
        <time>2010-10-03T08:41:51Z</time>
      </trkpt>
      <trkpt lat="48.02001" lon="6.93632">
        <ele>1034</ele>
        <time>2010-10-03T08:42:05Z</time>
      </trkpt>
      <trkpt lat="48.01978" lon="6.936">
        <ele>1039</ele>
        <time>2010-10-03T08:42:25Z</time>
      </trkpt>
      <trkpt lat="48.01966" lon="6.93584">
        <ele>1039</ele>
        <time>2010-10-03T08:42:37Z</time>
      </trkpt>
      <trkpt lat="48.01949" lon="6.93559">
        <ele>1044</ele>
        <time>2010-10-03T08:42:57Z</time>
      </trkpt>
      <trkpt lat="48.01928" lon="6.93514">
        <ele>1047</ele>
        <time>2010-10-03T08:43:23Z</time>
      </trkpt>
      <trkpt lat="48.01918" lon="6.93496">
        <ele>1047</ele>
        <time>2010-10-03T08:43:32Z</time>
      </trkpt>
      <trkpt lat="48.01902" lon="6.93484">
        <ele>1048</ele>
        <time>2010-10-03T08:43:40Z</time>
      </trkpt>
      <trkpt lat="48.01858" lon="6.93454">
        <ele>1062</ele>
        <time>2010-10-03T08:44:11Z</time>
      </trkpt>
      <trkpt lat="48.01808" lon="6.934">
        <ele>1073</ele>
        <time>2010-10-03T08:44:43Z</time>
      </trkpt>
      <trkpt lat="48.01794" lon="6.93387">
        <ele>1074</ele>
        <time>2010-10-03T08:44:53Z</time>
      </trkpt>
      <trkpt lat="48.01779" lon="6.93376">
        <ele>1074</ele>
        <time>2010-10-03T08:45:03Z</time>
      </trkpt>
      <trkpt lat="48.01766" lon="6.93371">
        <ele>1075</ele>
        <time>2010-10-03T08:45:12Z</time>
      </trkpt>
      <trkpt lat="48.01716" lon="6.93363">
        <ele>1085</ele>
        <time>2010-10-03T08:45:44Z</time>
      </trkpt>
      <trkpt lat="48.01668" lon="6.93355">
        <ele>1096</ele>
        <time>2010-10-03T08:46:14Z</time>
      </trkpt>
      <trkpt lat="48.01647" lon="6.93351">
        <ele>1100</ele>
        <time>2010-10-03T08:46:27Z</time>
      </trkpt>
      <trkpt lat="48.01633" lon="6.93349">
        <ele>1100</ele>
        <time>2010-10-03T08:46:36Z</time>
      </trkpt>
      <trkpt lat="48.01618" lon="6.93338">
        <ele>1099</ele>
        <time>2010-10-03T08:46:47Z</time>
      </trkpt>
      <trkpt lat="48.01608" lon="6.93306">
        <ele>1097</ele>
        <time>2010-10-03T08:47:01Z</time>
      </trkpt>
      <trkpt lat="48.01607" lon="6.93283">
        <ele>1095</ele>
        <time>2010-10-03T08:47:12Z</time>
      </trkpt>
      <trkpt lat="48.01609" lon="6.93264">
        <ele>1095</ele>
        <time>2010-10-03T08:47:22Z</time>
      </trkpt>
      <trkpt lat="48.01613" lon="6.9325">
        <ele>1093</ele>
        <time>2010-10-03T08:47:29Z</time>
      </trkpt>
      <trkpt lat="48.01617" lon="6.93239">
        <ele>1093</ele>
        <time>2010-10-03T08:47:34Z</time>
      </trkpt>
      <trkpt lat="48.01624" lon="6.93224">
        <ele>1094</ele>
        <time>2010-10-03T08:47:42Z</time>
      </trkpt>
      <trkpt lat="48.01629" lon="6.93212">
        <ele>1094</ele>
        <time>2010-10-03T08:47:48Z</time>
      </trkpt>
      <trkpt lat="48.01637" lon="6.9319">
        <ele>1095</ele>
        <time>2010-10-03T08:47:57Z</time>
      </trkpt>
      <trkpt lat="48.01649" lon="6.93146">
        <ele>1095</ele>
        <time>2010-10-03T08:48:15Z</time>
      </trkpt>
      <trkpt lat="48.01653" lon="6.93125">
        <ele>1098</ele>
        <time>2010-10-03T08:48:24Z</time>
      </trkpt>
      <trkpt lat="48.01664" lon="6.93085">
        <ele>1100</ele>
        <time>2010-10-03T08:48:43Z</time>
      </trkpt>
      <trkpt lat="48.01671" lon="6.93006">
        <ele>1108</ele>
        <time>2010-10-03T08:49:17Z</time>
      </trkpt>
      <trkpt lat="48.01674" lon="6.92988">
        <ele>1109</ele>
        <time>2010-10-03T08:49:27Z</time>
      </trkpt>
      <trkpt lat="48.01685" lon="6.92997">
        <ele>1109</ele>
        <time>2010-10-03T08:49:38Z</time>
      </trkpt>
      <trkpt lat="48.01691" lon="6.93018">
        <ele>1111</ele>
        <time>2010-10-03T08:49:50Z</time>
      </trkpt>
      <trkpt lat="48.01688" lon="6.92999">
        <ele>1110</ele>
        <time>2010-10-03T08:56:24Z</time>
      </trkpt>
      <trkpt lat="48.01682" lon="6.92975">
        <ele>1109</ele>
        <time>2010-10-03T08:56:28Z</time>
      </trkpt>
      <trkpt lat="48.01648" lon="6.92898">
        <ele>1114</ele>
        <time>2010-10-03T08:56:48Z</time>
      </trkpt>
      <trkpt lat="48.01637" lon="6.92878">
        <ele>1114</ele>
        <time>2010-10-03T08:56:53Z</time>
      </trkpt>
      <trkpt lat="48.01625" lon="6.92862">
        <ele>1115</ele>
        <time>2010-10-03T08:56:59Z</time>
      </trkpt>
      <trkpt lat="48.01613" lon="6.92844">
        <ele>1115</ele>
        <time>2010-10-03T08:57:06Z</time>
      </trkpt>
      <trkpt lat="48.01584" lon="6.92818">
        <ele>1113</ele>
        <time>2010-10-03T08:57:18Z</time>
      </trkpt>
      <trkpt lat="48.01571" lon="6.92805">
        <ele>1113</ele>
        <time>2010-10-03T08:57:21Z</time>
      </trkpt>
      <trkpt lat="48.01555" lon="6.92789">
        <ele>1114</ele>
        <time>2010-10-03T08:57:25Z</time>
      </trkpt>
      <trkpt lat="48.01518" lon="6.92765">
        <ele>1112</ele>
        <time>2010-10-03T08:57:37Z</time>
      </trkpt>
      <trkpt lat="48.01475" lon="6.92725">
        <ele>1099</ele>
        <time>2010-10-03T08:58:00Z</time>
      </trkpt>
      <trkpt lat="48.01442" lon="6.92701">
        <ele>1099</ele>
        <time>2010-10-03T08:58:13Z</time>
      </trkpt>
      <trkpt lat="48.01427" lon="6.9268">
        <ele>1097</ele>
        <time>2010-10-03T08:58:24Z</time>
      </trkpt>
      <trkpt lat="48.01415" lon="6.92673">
        <ele>1094</ele>
        <time>2010-10-03T08:58:37Z</time>
      </trkpt>
      <trkpt lat="48.01398" lon="6.92668">
        <ele>1094</ele>
        <time>2010-10-03T08:58:44Z</time>
      </trkpt>
      <trkpt lat="48.01382" lon="6.92667">
        <ele>1093</ele>
        <time>2010-10-03T08:58:51Z</time>
      </trkpt>
      <trkpt lat="48.01363" lon="6.92662">
        <ele>1093</ele>
        <time>2010-10-03T08:58:56Z</time>
      </trkpt>
      <trkpt lat="48.01348" lon="6.92651">
        <ele>1094</ele>
        <time>2010-10-03T08:59:03Z</time>
      </trkpt>
      <trkpt lat="48.01332" lon="6.9265">
        <ele>1093</ele>
        <time>2010-10-03T08:59:08Z</time>
      </trkpt>
      <trkpt lat="48.01315" lon="6.92656">
        <ele>1094</ele>
        <time>2010-10-03T08:59:13Z</time>
      </trkpt>
      <trkpt lat="48.01304" lon="6.9266">
        <ele>1094</ele>
        <time>2010-10-03T08:59:19Z</time>
      </trkpt>
      <trkpt lat="48.01251" lon="6.92654">
        <ele>1091</ele>
        <time>2010-10-03T08:59:33Z</time>
      </trkpt>
      <trkpt lat="48.01197" lon="6.92664">
        <ele>1085</ele>
        <time>2010-10-03T08:59:48Z</time>
      </trkpt>
      <trkpt lat="48.01155" lon="6.92696">
        <ele>1082</ele>
        <time>2010-10-03T08:59:57Z</time>
      </trkpt>
      <trkpt lat="48.01123" lon="6.92734">
        <ele>1076</ele>
        <time>2010-10-03T09:00:06Z</time>
      </trkpt>
      <trkpt lat="48.01097" lon="6.9272">
        <ele>1070</ele>
        <time>2010-10-03T09:00:14Z</time>
      </trkpt>
      <trkpt lat="48.01088" lon="6.927">
        <ele>1067</ele>
        <time>2010-10-03T09:00:19Z</time>
      </trkpt>
      <trkpt lat="48.00994" lon="6.92531">
        <ele>1040</ele>
        <time>2010-10-03T09:00:52Z</time>
      </trkpt>
      <trkpt lat="48.0096" lon="6.925">
        <ele>1032</ele>
        <time>2010-10-03T09:01:04Z</time>
      </trkpt>
      <trkpt lat="48.00918" lon="6.92475">
        <ele>1030</ele>
        <time>2010-10-03T09:01:16Z</time>
      </trkpt>
      <trkpt lat="48.00903" lon="6.92471">
        <ele>1026</ele>
        <time>2010-10-03T09:01:20Z</time>
      </trkpt>
      <trkpt lat="48.00865" lon="6.92469">
        <ele>1019</ele>
        <time>2010-10-03T09:01:29Z</time>
      </trkpt>
      <trkpt lat="48.00831" lon="6.92465">
        <ele>1017</ele>
        <time>2010-10-03T09:01:37Z</time>
      </trkpt>
      <trkpt lat="48.00836" lon="6.92482">
        <ele>989</ele>
        <time>2010-10-03T09:02:07Z</time>
      </trkpt>
      <trkpt lat="48.00795" lon="6.92502">
        <ele>975</ele>
        <time>2010-10-03T09:02:28Z</time>
      </trkpt>
      <trkpt lat="48.00776" lon="6.92515">
        <ele>975</ele>
        <time>2010-10-03T09:02:43Z</time>
      </trkpt>
      <trkpt lat="48.0077" lon="6.92509">
        <ele>955</ele>
        <time>2010-10-03T09:06:07Z</time>
      </trkpt>
      <trkpt lat="48.00726" lon="6.92491">
        <ele>953</ele>
        <time>2010-10-03T09:06:17Z</time>
      </trkpt>
      <trkpt lat="48.00695" lon="6.9247">
        <ele>948</ele>
        <time>2010-10-03T09:06:30Z</time>
      </trkpt>
      <trkpt lat="48.00685" lon="6.92497">
        <ele>932</ele>
        <time>2010-10-03T09:06:53Z</time>
      </trkpt>
      <trkpt lat="48.00667" lon="6.92485">
        <ele>932</ele>
        <time>2010-10-03T09:06:58Z</time>
      </trkpt>
      <trkpt lat="48.00654" lon="6.92472">
        <ele>932</ele>
        <time>2010-10-03T09:07:02Z</time>
      </trkpt>
      <trkpt lat="48.0062" lon="6.92429">
        <ele>929</ele>
        <time>2010-10-03T09:07:12Z</time>
      </trkpt>
      <trkpt lat="48.00607" lon="6.92409">
        <ele>920</ele>
        <time>2010-10-03T09:07:24Z</time>
      </trkpt>
      <trkpt lat="48.00577" lon="6.92395">
        <ele>912</ele>
        <time>2010-10-03T09:07:41Z</time>
      </trkpt>
      <trkpt lat="48.00545" lon="6.9239">
        <ele>912</ele>
        <time>2010-10-03T09:08:15Z</time>
      </trkpt>
      <trkpt lat="48.0053" lon="6.92387">
        <ele>910</ele>
        <time>2010-10-03T09:09:55Z</time>
      </trkpt>
      <trkpt lat="48.00516" lon="6.92366">
        <ele>908</ele>
        <time>2010-10-03T09:09:59Z</time>
      </trkpt>
      <trkpt lat="48.0038" lon="6.92136">
        <ele>878</ele>
        <time>2010-10-03T09:10:35Z</time>
      </trkpt>
      <trkpt lat="48.00352" lon="6.92074">
        <ele>877</ele>
        <time>2010-10-03T09:10:45Z</time>
      </trkpt>
      <trkpt lat="48.00348" lon="6.92102">
        <ele>868</ele>
        <time>2010-10-03T09:10:57Z</time>
      </trkpt>
      <trkpt lat="48.00344" lon="6.92148">
        <ele>860</ele>
        <time>2010-10-03T09:11:20Z</time>
      </trkpt>
      <trkpt lat="48.00334" lon="6.9213">
        <ele>860</ele>
        <time>2010-10-03T09:11:24Z</time>
      </trkpt>
      <trkpt lat="48.0029" lon="6.91971">
        <ele>838</ele>
        <time>2010-10-03T09:11:57Z</time>
      </trkpt>
      <trkpt lat="48.00284" lon="6.91946">
        <ele>837</ele>
        <time>2010-10-03T09:12:01Z</time>
      </trkpt>
      <trkpt lat="48.00277" lon="6.91909">
        <ele>833</ele>
        <time>2010-10-03T09:12:09Z</time>
      </trkpt>
      <trkpt lat="48.00268" lon="6.91859">
        <ele>830</ele>
        <time>2010-10-03T09:12:21Z</time>
      </trkpt>
      <trkpt lat="48.00258" lon="6.91809">
        <ele>830</ele>
        <time>2010-10-03T09:12:31Z</time>
      </trkpt>
      <trkpt lat="48.00252" lon="6.91758">
        <ele>828</ele>
        <time>2010-10-03T09:12:41Z</time>
      </trkpt>
      <trkpt lat="48.00248" lon="6.91736">
        <ele>823</ele>
        <time>2010-10-03T09:12:50Z</time>
      </trkpt>
      <trkpt lat="48.00239" lon="6.91738">
        <ele>812</ele>
        <time>2010-10-03T09:13:00Z</time>
      </trkpt>
      <trkpt lat="48.0024" lon="6.91717">
        <ele>805</ele>
        <time>2010-10-03T09:13:15Z</time>
      </trkpt>
      <trkpt lat="48.00237" lon="6.91709">
        <ele>798</ele>
        <time>2010-10-03T09:13:29Z</time>
      </trkpt>
      <trkpt lat="48.00236" lon="6.91691">
        <ele>795</ele>
        <time>2010-10-03T09:13:38Z</time>
      </trkpt>
      <trkpt lat="48.00253" lon="6.91601">
        <ele>788</ele>
        <time>2010-10-03T09:13:54Z</time>
      </trkpt>
      <trkpt lat="48.00255" lon="6.91579">
        <ele>788</ele>
        <time>2010-10-03T09:13:58Z</time>
      </trkpt>
      <trkpt lat="48.00252" lon="6.91469">
        <ele>779</ele>
        <time>2010-10-03T09:14:19Z</time>
      </trkpt>
      <trkpt lat="48.00237" lon="6.91476">
        <ele>773</ele>
        <time>2010-10-03T09:14:30Z</time>
      </trkpt>
      <trkpt lat="48.00204" lon="6.91487">
        <ele>762</ele>
        <time>2010-10-03T09:14:46Z</time>
      </trkpt>
      <trkpt lat="48.00196" lon="6.91509">
        <ele>758</ele>
        <time>2010-10-03T09:14:51Z</time>
      </trkpt>
      <trkpt lat="48.00186" lon="6.9153">
        <ele>755</ele>
        <time>2010-10-03T09:14:56Z</time>
      </trkpt>
      <trkpt lat="48.00146" lon="6.91535">
        <ele>746</ele>
        <time>2010-10-03T09:15:10Z</time>
      </trkpt>
      <trkpt lat="48.00157" lon="6.91527">
        <ele>722</ele>
        <time>2010-10-03T09:16:03Z</time>
      </trkpt>
      <trkpt lat="48.00145" lon="6.9151">
        <ele>725</ele>
        <time>2010-10-03T09:18:46Z</time>
      </trkpt>
      <trkpt lat="48.00131" lon="6.91505">
        <ele>720</ele>
        <time>2010-10-03T09:18:58Z</time>
      </trkpt>
      <trkpt lat="48.00124" lon="6.91517">
        <ele>719</ele>
        <time>2010-10-03T09:19:01Z</time>
      </trkpt>
      <trkpt lat="48.00112" lon="6.91536">
        <ele>720</ele>
        <time>2010-10-03T09:19:05Z</time>
      </trkpt>
      <trkpt lat="48.0003" lon="6.91692">
        <ele>721</ele>
        <time>2010-10-03T09:19:34Z</time>
      </trkpt>
      <trkpt lat="48.00016" lon="6.91702">
        <ele>720</ele>
        <time>2010-10-03T09:19:38Z</time>
      </trkpt>
      <trkpt lat="47.99967" lon="6.91713">
        <ele>720</ele>
        <time>2010-10-03T09:19:56Z</time>
      </trkpt>
      <trkpt lat="47.99901" lon="6.91726">
        <ele>726</ele>
        <time>2010-10-03T09:20:30Z</time>
      </trkpt>
      <trkpt lat="47.99895" lon="6.91712">
        <ele>726</ele>
        <time>2010-10-03T09:20:35Z</time>
      </trkpt>
      <trkpt lat="47.99885" lon="6.91668">
        <ele>726</ele>
        <time>2010-10-03T09:20:51Z</time>
      </trkpt>
      <trkpt lat="47.99884" lon="6.91644">
        <ele>727</ele>
        <time>2010-10-03T09:21:01Z</time>
      </trkpt>
      <trkpt lat="47.9988" lon="6.91577">
        <ele>736</ele>
        <time>2010-10-03T09:21:37Z</time>
      </trkpt>
      <trkpt lat="47.99879" lon="6.91544">
        <ele>738</ele>
        <time>2010-10-03T09:21:56Z</time>
      </trkpt>
      <trkpt lat="47.99878" lon="6.91515">
        <ele>738</ele>
        <time>2010-10-03T09:22:07Z</time>
      </trkpt>
      <trkpt lat="47.99885" lon="6.91471">
        <ele>743</ele>
        <time>2010-10-03T09:22:30Z</time>
      </trkpt>
      <trkpt lat="47.99894" lon="6.91451">
        <ele>744</ele>
        <time>2010-10-03T09:22:42Z</time>
      </trkpt>
      <trkpt lat="47.99909" lon="6.91384">
        <ele>753</ele>
        <time>2010-10-03T09:23:21Z</time>
      </trkpt>
      <trkpt lat="47.99919" lon="6.91317">
        <ele>756</ele>
        <time>2010-10-03T09:23:53Z</time>
      </trkpt>
      <trkpt lat="47.99933" lon="6.91247">
        <ele>763</ele>
        <time>2010-10-03T09:24:27Z</time>
      </trkpt>
      <trkpt lat="47.99952" lon="6.9116">
        <ele>770</ele>
        <time>2010-10-03T09:25:07Z</time>
      </trkpt>
      <trkpt lat="47.99959" lon="6.91139">
        <ele>771</ele>
        <time>2010-10-03T09:25:19Z</time>
      </trkpt>
      <trkpt lat="47.9997" lon="6.91113">
        <ele>774</ele>
        <time>2010-10-03T09:25:32Z</time>
      </trkpt>
      <trkpt lat="47.99974" lon="6.91102">
        <ele>773</ele>
        <time>2010-10-03T09:25:38Z</time>
      </trkpt>
      <trkpt lat="47.99979" lon="6.91087">
        <ele>773</ele>
        <time>2010-10-03T09:25:45Z</time>
      </trkpt>
      <trkpt lat="47.99988" lon="6.91041">
        <ele>778</ele>
        <time>2010-10-03T09:26:05Z</time>
      </trkpt>
      <trkpt lat="47.99985" lon="6.91017">
        <ele>780</ele>
        <time>2010-10-03T09:26:15Z</time>
      </trkpt>
      <trkpt lat="47.99976" lon="6.90996">
        <ele>782</ele>
        <time>2010-10-03T09:26:24Z</time>
      </trkpt>
      <trkpt lat="47.99961" lon="6.90973">
        <ele>783</ele>
        <time>2010-10-03T09:26:37Z</time>
      </trkpt>
      <trkpt lat="47.99954" lon="6.90952">
        <ele>787</ele>
        <time>2010-10-03T09:26:51Z</time>
      </trkpt>
      <trkpt lat="47.99947" lon="6.90932">
        <ele>788</ele>
        <time>2010-10-03T09:27:02Z</time>
      </trkpt>
      <trkpt lat="47.99945" lon="6.90908">
        <ele>785</ele>
        <time>2010-10-03T09:27:17Z</time>
      </trkpt>
      <trkpt lat="47.99939" lon="6.90884">
        <ele>790</ele>
        <time>2010-10-03T09:27:26Z</time>
      </trkpt>
      <trkpt lat="47.99925" lon="6.90866">
        <ele>796</ele>
        <time>2010-10-03T09:27:37Z</time>
      </trkpt>
      <trkpt lat="47.99895" lon="6.90834">
        <ele>805</ele>
        <time>2010-10-03T09:28:02Z</time>
      </trkpt>
      <trkpt lat="47.99883" lon="6.90819">
        <ele>803</ele>
        <time>2010-10-03T09:28:15Z</time>
      </trkpt>
      <trkpt lat="47.99867" lon="6.90813">
        <ele>803</ele>
        <time>2010-10-03T09:28:27Z</time>
      </trkpt>
      <trkpt lat="47.99837" lon="6.90814">
        <ele>813</ele>
        <time>2010-10-03T09:29:08Z</time>
      </trkpt>
      <trkpt lat="47.99849" lon="6.90836">
        <ele>816</ele>
        <time>2010-10-03T09:29:35Z</time>
      </trkpt>
      <trkpt lat="47.99881" lon="6.9089">
        <ele>816</ele>
        <time>2010-10-03T09:30:10Z</time>
      </trkpt>
      <trkpt lat="47.99872" lon="6.90899">
        <ele>825</ele>
        <time>2010-10-03T09:30:33Z</time>
      </trkpt>
      <trkpt lat="47.99866" lon="6.9089">
        <ele>828</ele>
        <time>2010-10-03T09:31:00Z</time>
      </trkpt>
      <trkpt lat="47.99836" lon="6.90892">
        <ele>837</ele>
        <time>2010-10-03T09:31:28Z</time>
      </trkpt>
      <trkpt lat="47.99825" lon="6.90891">
        <ele>840</ele>
        <time>2010-10-03T09:31:36Z</time>
      </trkpt>
      <trkpt lat="47.99819" lon="6.90884">
        <ele>838</ele>
        <time>2010-10-03T09:32:08Z</time>
      </trkpt>
      <trkpt lat="47.99808" lon="6.90895">
        <ele>831</ele>
        <time>2010-10-03T09:33:01Z</time>
      </trkpt>
      <trkpt lat="47.99793" lon="6.90887">
        <ele>832</ele>
        <time>2010-10-03T09:33:10Z</time>
      </trkpt>
      <trkpt lat="47.99747" lon="6.90863">
        <ele>837</ele>
        <time>2010-10-03T09:33:37Z</time>
      </trkpt>
      <trkpt lat="47.99731" lon="6.90859">
        <ele>837</ele>
        <time>2010-10-03T09:33:46Z</time>
      </trkpt>
      <trkpt lat="47.99711" lon="6.90854">
        <ele>840</ele>
        <time>2010-10-03T09:33:58Z</time>
      </trkpt>
      <trkpt lat="47.99694" lon="6.90852">
        <ele>840</ele>
        <time>2010-10-03T09:34:07Z</time>
      </trkpt>
      <trkpt lat="47.99645" lon="6.90857">
        <ele>836</ele>
        <time>2010-10-03T09:34:35Z</time>
      </trkpt>
      <trkpt lat="47.99626" lon="6.9086">
        <ele>841</ele>
        <time>2010-10-03T09:34:46Z</time>
      </trkpt>
      <trkpt lat="47.99586" lon="6.90869">
        <ele>844</ele>
        <time>2010-10-03T09:35:07Z</time>
      </trkpt>
      <trkpt lat="47.9955" lon="6.90861">
        <ele>855</ele>
        <time>2010-10-03T09:35:38Z</time>
      </trkpt>
      <trkpt lat="47.99532" lon="6.90854">
        <ele>857</ele>
        <time>2010-10-03T09:35:42Z</time>
      </trkpt>
      <trkpt lat="47.99509" lon="6.90845">
        <ele>856</ele>
        <time>2010-10-03T09:35:50Z</time>
      </trkpt>
      <trkpt lat="47.99491" lon="6.90829">
        <ele>862</ele>
        <time>2010-10-03T09:36:01Z</time>
      </trkpt>
      <trkpt lat="47.99464" lon="6.90791">
        <ele>873</ele>
        <time>2010-10-03T09:36:31Z</time>
      </trkpt>
      <trkpt lat="47.99452" lon="6.90776">
        <ele>880</ele>
        <time>2010-10-03T09:36:41Z</time>
      </trkpt>
      <trkpt lat="47.99439" lon="6.9076">
        <ele>880</ele>
        <time>2010-10-03T09:36:50Z</time>
      </trkpt>
      <trkpt lat="47.99424" lon="6.90732">
        <ele>885</ele>
        <time>2010-10-03T09:37:01Z</time>
      </trkpt>
      <trkpt lat="47.99419" lon="6.90722">
        <ele>883</ele>
        <time>2010-10-03T09:37:06Z</time>
      </trkpt>
      <trkpt lat="47.99397" lon="6.90658">
        <ele>895</ele>
        <time>2010-10-03T09:37:36Z</time>
      </trkpt>
      <trkpt lat="47.99383" lon="6.90642">
        <ele>896</ele>
        <time>2010-10-03T09:37:45Z</time>
      </trkpt>
      <trkpt lat="47.9936" lon="6.90624">
        <ele>899</ele>
        <time>2010-10-03T09:37:56Z</time>
      </trkpt>
      <trkpt lat="47.99352" lon="6.90605">
        <ele>901</ele>
        <time>2010-10-03T09:38:04Z</time>
      </trkpt>
      <trkpt lat="47.99354" lon="6.9058">
        <ele>901</ele>
        <time>2010-10-03T09:38:12Z</time>
      </trkpt>
      <trkpt lat="47.99359" lon="6.90556">
        <ele>902</ele>
        <time>2010-10-03T09:38:19Z</time>
      </trkpt>
      <trkpt lat="47.9937" lon="6.90532">
        <ele>904</ele>
        <time>2010-10-03T09:38:26Z</time>
      </trkpt>
      <trkpt lat="47.99393" lon="6.90494">
        <ele>904</ele>
        <time>2010-10-03T09:38:36Z</time>
      </trkpt>
      <trkpt lat="47.99403" lon="6.90474">
        <ele>903</ele>
        <time>2010-10-03T09:38:41Z</time>
      </trkpt>
      <trkpt lat="47.9943" lon="6.9044">
        <ele>903</ele>
        <time>2010-10-03T09:38:52Z</time>
      </trkpt>
      <trkpt lat="47.99456" lon="6.9041">
        <ele>905</ele>
        <time>2010-10-03T09:39:00Z</time>
      </trkpt>
      <trkpt lat="47.99472" lon="6.90397">
        <ele>905</ele>
        <time>2010-10-03T09:39:05Z</time>
      </trkpt>
      <trkpt lat="47.99506" lon="6.90389">
        <ele>907</ele>
        <time>2010-10-03T09:39:14Z</time>
      </trkpt>
      <trkpt lat="47.99551" lon="6.90395">
        <ele>912</ele>
        <time>2010-10-03T09:39:25Z</time>
      </trkpt>
      <trkpt lat="47.99565" lon="6.90377">
        <ele>912</ele>
        <time>2010-10-03T09:39:29Z</time>
      </trkpt>
      <trkpt lat="47.99572" lon="6.90349">
        <ele>911</ele>
        <time>2010-10-03T09:39:33Z</time>
      </trkpt>
      <trkpt lat="47.99571" lon="6.90323">
        <ele>910</ele>
        <time>2010-10-03T09:39:36Z</time>
      </trkpt>
      <trkpt lat="47.99566" lon="6.90292">
        <ele>909</ele>
        <time>2010-10-03T09:39:40Z</time>
      </trkpt>
      <trkpt lat="47.99564" lon="6.90262">
        <ele>906</ele>
        <time>2010-10-03T09:39:44Z</time>
      </trkpt>
      <trkpt lat="47.99567" lon="6.90235">
        <ele>906</ele>
        <time>2010-10-03T09:39:48Z</time>
      </trkpt>
      <trkpt lat="47.99591" lon="6.90181">
        <ele>906</ele>
        <time>2010-10-03T09:39:57Z</time>
      </trkpt>
      <trkpt lat="47.99637" lon="6.90118">
        <ele>915</ele>
        <time>2010-10-03T09:40:13Z</time>
      </trkpt>
      <trkpt lat="47.99754" lon="6.89928">
        <ele>903</ele>
        <time>2010-10-03T09:40:45Z</time>
      </trkpt>
      <trkpt lat="47.99779" lon="6.89836">
        <ele>903</ele>
        <time>2010-10-03T09:40:57Z</time>
      </trkpt>
      <trkpt lat="47.99768" lon="6.89801">
        <ele>903</ele>
        <time>2010-10-03T09:41:02Z</time>
      </trkpt>
      <trkpt lat="47.99756" lon="6.89784">
        <ele>904</ele>
        <time>2010-10-03T09:41:05Z</time>
      </trkpt>
      <trkpt lat="47.9974" lon="6.89766">
        <ele>904</ele>
        <time>2010-10-03T09:41:09Z</time>
      </trkpt>
      <trkpt lat="47.99667" lon="6.89703">
        <ele>909</ele>
        <time>2010-10-03T09:41:28Z</time>
      </trkpt>
      <trkpt lat="47.99651" lon="6.89691">
        <ele>908</ele>
        <time>2010-10-03T09:41:32Z</time>
      </trkpt>
      <trkpt lat="47.99636" lon="6.89673">
        <ele>908</ele>
        <time>2010-10-03T09:41:36Z</time>
      </trkpt>
      <trkpt lat="47.9962" lon="6.89654">
        <ele>909</ele>
        <time>2010-10-03T09:41:40Z</time>
      </trkpt>
      <trkpt lat="47.99596" lon="6.89625">
        <ele>915</ele>
        <time>2010-10-03T09:42:01Z</time>
      </trkpt>
      <trkpt lat="47.99589" lon="6.896">
        <ele>915</ele>
        <time>2010-10-03T09:42:07Z</time>
      </trkpt>
      <trkpt lat="47.99589" lon="6.89575">
        <ele>915</ele>
        <time>2010-10-03T09:42:13Z</time>
      </trkpt>
      <trkpt lat="47.99592" lon="6.89549">
        <ele>916</ele>
        <time>2010-10-03T09:42:19Z</time>
      </trkpt>
      <trkpt lat="47.99613" lon="6.89418">
        <ele>916</ele>
        <time>2010-10-03T09:42:50Z</time>
      </trkpt>
      <trkpt lat="47.99642" lon="6.89311">
        <ele>920</ele>
        <time>2010-10-03T09:43:19Z</time>
      </trkpt>
      <trkpt lat="47.99663" lon="6.89267">
        <ele>922</ele>
        <time>2010-10-03T09:43:32Z</time>
      </trkpt>
      <trkpt lat="47.99674" lon="6.89248">
        <ele>922</ele>
        <time>2010-10-03T09:43:38Z</time>
      </trkpt>
      <trkpt lat="47.99718" lon="6.89157">
        <ele>927</ele>
        <time>2010-10-03T09:44:02Z</time>
      </trkpt>
      <trkpt lat="47.99747" lon="6.89061">
        <ele>927</ele>
        <time>2010-10-03T09:44:12Z</time>
      </trkpt>
      <trkpt lat="47.99748" lon="6.89047">
        <ele>928</ele>
        <time>2010-10-03T09:44:13Z</time>
      </trkpt>
      <trkpt lat="47.99748" lon="6.89021">
        <ele>928</ele>
        <time>2010-10-03T09:44:15Z</time>
      </trkpt>
      <trkpt lat="47.99749" lon="6.89001">
        <ele>929</ele>
        <time>2010-10-03T09:44:18Z</time>
      </trkpt>
      <trkpt lat="47.99746" lon="6.88964">
        <ele>929</ele>
        <time>2010-10-03T09:44:27Z</time>
      </trkpt>
      <trkpt lat="47.99738" lon="6.88895">
        <ele>925</ele>
        <time>2010-10-03T09:44:39Z</time>
      </trkpt>
      <trkpt lat="47.9974" lon="6.88879">
        <ele>925</ele>
        <time>2010-10-03T09:44:42Z</time>
      </trkpt>
      <trkpt lat="47.99745" lon="6.88855">
        <ele>926</ele>
        <time>2010-10-03T09:44:46Z</time>
      </trkpt>
      <trkpt lat="47.99753" lon="6.88833">
        <ele>924</ele>
        <time>2010-10-03T09:44:50Z</time>
      </trkpt>
      <trkpt lat="47.99764" lon="6.88809">
        <ele>924</ele>
        <time>2010-10-03T09:44:54Z</time>
      </trkpt>
      <trkpt lat="47.99797" lon="6.88765">
        <ele>917</ele>
        <time>2010-10-03T09:45:07Z</time>
      </trkpt>
      <trkpt lat="47.9985" lon="6.88636">
        <ele>908</ele>
        <time>2010-10-03T09:45:28Z</time>
      </trkpt>
      <trkpt lat="47.99859" lon="6.88631">
        <ele>884</ele>
        <time>2010-10-03T09:50:27Z</time>
      </trkpt>
      <trkpt lat="47.99861" lon="6.88634">
        <ele>885</ele>
        <time>2010-10-03T10:15:26Z</time>
      </trkpt>
      <trkpt lat="47.99855" lon="6.88669">
        <ele>904</ele>
        <time>2010-10-03T10:16:47Z</time>
      </trkpt>
      <trkpt lat="47.99871" lon="6.88721">
        <ele>904</ele>
        <time>2010-10-03T10:16:52Z</time>
      </trkpt>
      <trkpt lat="47.99889" lon="6.88767">
        <ele>901</ele>
        <time>2010-10-03T10:16:56Z</time>
      </trkpt>
      <trkpt lat="47.99893" lon="6.88781">
        <ele>901</ele>
        <time>2010-10-03T10:16:57Z</time>
      </trkpt>
      <trkpt lat="47.999" lon="6.88876">
        <ele>892</ele>
        <time>2010-10-03T10:17:07Z</time>
      </trkpt>
      <trkpt lat="47.99913" lon="6.88856">
        <ele>888</ele>
        <time>2010-10-03T10:17:12Z</time>
      </trkpt>
      <trkpt lat="48.0009" lon="6.88494">
        <ele>869</ele>
        <time>2010-10-03T10:17:42Z</time>
      </trkpt>
      <trkpt lat="48.00099" lon="6.88463">
        <ele>867</ele>
        <time>2010-10-03T10:17:44Z</time>
      </trkpt>
      <trkpt lat="48.00102" lon="6.88447">
        <ele>867</ele>
        <time>2010-10-03T10:17:45Z</time>
      </trkpt>
      <trkpt lat="48.00112" lon="6.88333">
        <ele>861</ele>
        <time>2010-10-03T10:17:52Z</time>
      </trkpt>
      <trkpt lat="48.00108" lon="6.88282">
        <ele>859</ele>
        <time>2010-10-03T10:17:55Z</time>
      </trkpt>
      <trkpt lat="48.00095" lon="6.88257">
        <ele>857</ele>
        <time>2010-10-03T10:17:57Z</time>
      </trkpt>
      <trkpt lat="48.00087" lon="6.88248">
        <ele>857</ele>
        <time>2010-10-03T10:17:58Z</time>
      </trkpt>
      <trkpt lat="47.99984" lon="6.88153">
        <ele>841</ele>
        <time>2010-10-03T10:18:11Z</time>
      </trkpt>
    </trkseg>
  </trk>
</gpx>